Time;durP1;ratioP1;P1;durP2;ratioP2;P2;SDS_P1;SDS_P2;PMS_P1;PMS_P2;Temp;Humidity;BMP_temperature;BMP_pressure;BME280_temperature;BME280_humidity;BME280_pressure;Samples;Min_cycle;Max_cycle;Signal;HPM_P1;HPM_P2
2022/11/06 00:00:17;;;;;;;2.05;1.38;;;15.20;65.20;;;;;;5084317;28;20040;-70
2022/11/06 00:02:44;;;;;;;1.50;1.40;;;15.20;65.30;;;;;;5084327;28;20028;-70
2022/11/06 00:07:55;;;;;;;1.25;1.10;;;15.20;65.20;;;;;;5084217;28;20019;-70
2022/11/06 00:10:21;;;;;;;1.30;1.20;;;15.10;65.20;;;;;;5084126;28;20028;-70
2022/11/06 00:12:47;;;;;;;1.60;1.50;;;15.10;65.20;;;;;;5084104;28;20365;-70
2022/11/06 00:15:13;;;;;;;1.60;1.50;;;15.20;65.20;;;;;;5084062;28;20048;-70
2022/11/06 00:17:39;;;;;;;1.42;1.33;;;15.20;65.20;;;;;;5083931;28;20051;-70
2022/11/06 00:20:06;;;;;;;1.27;1.17;;;15.20;65.30;;;;;;5083987;28;20042;-70
2022/11/06 00:22:34;;;;;;;1.40;1.30;;;15.10;65.20;;;;;;5083933;28;20016;-70
2022/11/06 00:25:00;;;;;;;1.45;1.35;;;15.10;65.30;;;;;;5083946;28;20185;-70
2022/11/06 00:27:26;;;;;;;1.58;1.48;;;15.10;65.20;;;;;;5083904;28;20027;-70
2022/11/06 00:29:52;;;;;;;1.70;1.55;;;15.20;65.20;;;;;;5083724;28;20325;-70
2022/11/06 00:32:18;;;;;;;1.52;1.42;;;15.20;65.20;;;;;;5083815;28;20357;-70
2022/11/06 00:34:43;;;;;;;1.88;1.45;;;15.10;65.20;;;;;;5083841;28;20066;-70
2022/11/06 00:37:09;;;;;;;1.88;1.60;;;15.10;65.20;;;;;;5083718;28;20209;-70
2022/11/06 00:39:35;;;;;;;1.40;1.30;;;15.10;65.20;;;;;;5083693;28;20036;-70
2022/11/06 00:42:01;;;;;;;1.80;1.52;;;15.20;65.20;;;;;;5083683;28;20075;-70
2022/11/06 00:44:26;;;;;;;1.80;1.63;;;15.20;65.20;;;;;;5083680;28;20303;-70
2022/11/06 00:46:52;;;;;;;1.67;1.52;;;15.10;65.20;;;;;;5083625;28;20074;-70
2022/11/06 00:49:18;;;;;;;1.40;1.30;;;15.10;65.20;;;;;;5083616;28;20066;-70
2022/11/06 00:51:44;;;;;;;1.50;1.30;;;15.20;65.20;;;;;;5083486;28;20044;-70
2022/11/06 00:54:11;;;;;;;1.60;1.50;;;15.10;65.20;;;;;;5083562;28;20312;-69
2022/11/06 00:56:38;;;;;;;1.30;1.20;;;15.10;65.20;;;;;;5083483;28;20027;-70
2022/11/06 00:59:06;;;;;;;1.40;1.30;;;15.10;65.10;;;;;;5083553;28;20020;-70
2022/11/06 01:01:42;;;;;;;1.60;1.50;;;15.10;65.20;;;;;;5083561;28;20020;-70
2022/11/06 01:04:14;;;;;;;1.40;1.30;;;15.10;65.20;;;;;;5083505;28;20024;-70
2022/11/06 01:06:42;;;;;;;2.00;1.50;;;15.10;65.20;;;;;;5083430;28;20075;-70
2022/11/06 01:09:10;;;;;;;1.40;1.30;;;15.10;65.20;;;;;;5083443;28;20280;-70
2022/11/06 01:11:39;;;;;;;1.08;1.00;;;15.20;65.20;;;;;;5083421;28;20035;-70
2022/11/06 01:14:06;;;;;;;1.63;1.52;;;15.10;65.20;;;;;;5083375;28;20020;-69
2022/11/06 01:16:32;;;;;;;1.58;1.48;;;15.10;65.20;;;;;;5083268;28;20024;-70
2022/11/06 01:18:58;;;;;;;1.40;1.30;;;15.10;65.20;;;;;;5083328;28;20016;-70
2022/11/06 01:21:27;;;;;;;1.63;1.45;;;15.10;65.30;;;;;;5083316;28;20020;-70
2022/11/06 01:23:54;;;;;;;;;;;15.10;65.20;;;;;;5083728;28;20205;-70
2022/11/06 01:26:19;;;;;;;1.35;1.25;;;15.10;65.20;;;;;;5083193;28;19905;-70
2022/11/06 01:28:45;;;;;;;1.13;1.02;;;15.10;65.20;;;;;;5083188;28;20039;-69
2022/11/06 01:31:18;;;;;;;1.42;1.33;;;15.10;65.20;;;;;;5083042;28;20040;-70
2022/11/06 01:33:44;;;;;;;1.75;1.50;;;15.10;65.10;;;;;;5083225;28;20020;-69
2022/11/06 01:36:13;;;;;;;1.50;1.40;;;15.10;65.10;;;;;;5083087;28;20055;-69
2022/11/06 01:38:47;;;;;;;1.40;1.30;;;15.10;65.10;;;;;;5083131;28;20012;-70
2022/11/06 01:41:16;;;;;;;1.38;1.20;;;15.10;65.20;;;;;;5081943;28;20083;-70
2022/11/06 01:43:50;;;;;;;1.38;1.30;;;15.10;65.30;;;;;;5083080;28;20020;-70
2022/11/06 01:46:17;;;;;;;1.90;1.67;;;15.10;65.30;;;;;;5083076;28;20028;-70
2022/11/06 01:48:55;;;;;;;1.60;1.50;;;15.10;65.20;;;;;;5083047;28;20041;-70
2022/11/06 01:51:25;;;;;;;1.60;1.50;;;15.10;65.10;;;;;;5083051;28;20024;-70
2022/11/06 01:53:52;;;;;;;1.58;1.48;;;15.10;65.10;;;;;;5082993;28;20070;-70
2022/11/06 01:56:18;;;;;;;2.10;1.50;;;15.10;65.10;;;;;;5082881;28;20012;-70
2022/11/06 01:58:46;;;;;;;1.50;1.40;;;15.10;65.10;;;;;;5082930;28;20019;-70
2022/11/06 02:01:13;;;;;;;1.38;1.27;;;15.10;65.20;;;;;;5082932;28;20019;-70
2022/11/06 02:03:43;;;;;;;1.25;1.15;;;15.10;65.30;;;;;;5085231;28;20025;-70
2022/11/06 02:06:09;;;;;;;1.33;1.23;;;15.10;65.20;;;;;;5086803;28;20028;-69
2022/11/06 02:08:35;;;;;;;1.40;1.30;;;15.10;65.20;;;;;;5086490;28;20036;-70
2022/11/06 02:11:01;;;;;;;1.17;1.08;;;15.10;65.20;;;;;;5086435;28;20028;-70
2022/11/06 02:13:33;;;;;;;1.45;1.35;;;15.10;65.20;;;;;;5086414;28;20013;-70
2022/11/06 02:16:13;;;;;;;1.30;1.20;;;15.10;65.20;;;;;;5086285;28;20012;-70
2022/11/06 02:18:45;;;;;;;1.33;1.23;;;15.10;65.20;;;;;;5086401;28;20040;-70
2022/11/06 02:21:29;;;;;;;2.15;1.45;;;15.10;65.20;;;;;;5086272;28;20023;-70
2022/11/06 02:24:08;;;;;;;1.50;1.35;;;15.10;65.30;;;;;;5086275;28;20065;-69
2022/11/06 02:26:52;;;;;;;1.60;1.50;;;15.10;65.30;;;;;;5086231;28;20020;-70
2022/11/06 02:29:24;;;;;;;1.40;1.30;;;15.10;65.30;;;;;;5085957;28;20328;-70
2022/11/06 02:31:54;;;;;;;1.40;1.30;;;15.10;65.30;;;;;;5086121;28;20040;-69
2022/11/06 02:34:25;;;;;;;1.60;1.35;;;15.10;65.30;;;;;;5086107;28;20031;-71
2022/11/06 02:36:59;;;;;;;1.65;1.55;;;15.10;65.30;;;;;;5085960;28;20020;-70
2022/11/06 02:39:27;;;;;;;1.63;1.52;;;15.10;65.30;;;;;;5085996;28;20012;-70
2022/11/06 02:41:56;;;;;;;1.45;1.35;;;15.10;65.20;;;;;;5085938;28;20013;-70
2022/11/06 02:44:24;;;;;;;;;;;15.10;65.30;;;;;;5086336;28;20027;-70
2022/11/06 02:46:55;;;;;;;1.70;1.60;;;15.10;65.30;;;;;;5085845;28;19945;-70
2022/11/06 02:49:37;;;;;;;1.60;1.40;;;15.10;65.30;;;;;;5085820;28;20032;-70
2022/11/06 02:52:09;;;;;;;1.13;1.02;;;15.10;65.20;;;;;;5085722;28;20016;-70
2022/11/06 02:54:38;;;;;;;1.20;1.10;;;15.10;65.20;;;;;;5085723;28;20062;-70
2022/11/06 02:57:09;;;;;;;1.10;1.00;;;15.10;65.20;;;;;;5085512;28;20047;-70
2022/11/06 02:59:37;;;;;;;1.33;1.15;;;15.10;65.20;;;;;;5085582;28;20308;-69
2022/11/06 03:02:07;;;;;;;1.38;1.27;;;15.10;65.20;;;;;;5085549;28;20327;-70
2022/11/06 03:05:03;;;;;;;1.58;1.35;;;15.10;65.20;;;;;;5085523;28;20343;-69
2022/11/06 03:07:44;;;;;;;1.67;1.58;;;15.10;65.30;;;;;;5082476;28;20220;-70
2022/11/06 03:10:11;;;;;;;1.30;1.20;;;15.10;65.30;;;;;;5085413;28;20013;-70
2022/11/06 03:12:57;;;;;;;1.83;1.60;;;15.10;65.30;;;;;;5085306;28;20017;-70
2022/11/06 03:15:46;;;;;;;1.70;1.50;;;15.10;65.30;;;;;;5084031;28;20020;-70
2022/11/06 03:18:53;;;;;;;1.05;0.95;;;15.10;65.30;;;;;;5085183;28;20036;-70
2022/11/06 03:21:34;;;;;;;1.63;1.53;;;15.00;65.20;;;;;;5085179;28;20016;-69
2022/11/06 03:24:15;;;;;;;1.45;1.08;;;15.10;65.20;;;;;;5085124;28;20245;-70
2022/11/06 03:26:46;;;;;;;1.30;1.20;;;15.10;65.20;;;;;;5085065;28;20104;-70
2022/11/06 03:29:21;;;;;;;1.20;1.10;;;15.10;65.30;;;;;;5084925;28;20084;-69
2022/11/06 03:32:00;;;;;;;1.48;1.38;;;15.10;65.20;;;;;;5084965;28;20039;-70
2022/11/06 03:34:33;;;;;;;1.20;1.10;;;15.00;65.20;;;;;;5084933;28;20032;-70
2022/11/06 03:37:12;;;;;;;1.63;1.40;;;15.00;65.20;;;;;;5084791;28;20024;-70
2022/11/06 03:39:44;;;;;;;1.20;1.10;;;15.10;65.40;;;;;;5084787;28;20017;-70
2022/11/06 03:42:15;;;;;;;1.35;1.25;;;15.00;65.30;;;;;;5083692;28;20024;-70
2022/11/06 03:44:47;;;;;;;1.73;1.45;;;15.10;65.30;;;;;;5084733;28;20017;-70
2022/11/06 03:47:40;;;;;;;1.55;1.42;;;15.10;65.30;;;;;;5084641;28;20119;-69
2022/11/06 03:50:14;;;;;;;1.35;1.20;;;15.00;65.30;;;;;;5084578;28;20020;-69
2022/11/06 03:52:49;;;;;;;1.38;1.27;;;15.10;65.40;;;;;;5084505;28;20066;-70
2022/11/06 03:55:22;;;;;;;1.60;1.42;;;15.10;65.30;;;;;;5084513;28;20013;-69
2022/11/06 03:57:52;;;;;;;1.02;1.00;;;15.00;65.30;;;;;;5084367;28;20028;-70
2022/11/06 04:00:19;;;;;;;1.55;1.45;;;15.10;65.40;;;;;;5084381;28;20330;-70
2022/11/06 04:03:03;;;;;;;1.60;1.50;;;15.10;65.30;;;;;;5084307;28;20031;-70
2022/11/06 04:05:37;;;;;;;1.30;1.20;;;15.10;65.30;;;;;;5084291;28;20072;-70
2022/11/06 04:14:01;;;;;;;1.45;1.35;;;15.00;65.20;;;;;;5084170;28;20250;-70
2022/11/06 04:16:49;;;;;;;1.77;1.67;;;15.00;65.20;;;;;;5084046;28;20194;-70
2022/11/06 04:19:20;;;;;;;1.50;1.40;;;15.10;65.30;;;;;;5084057;28;20026;-70
2022/11/06 04:21:52;;;;;;;1.80;1.60;;;15.00;65.30;;;;;;5083966;28;20020;-70
2022/11/06 04:27:52;;;;;;;1.63;1.23;;;15.00;65.30;;;;;;5083614;28;20035;-70
2022/11/06 04:30:18;;;;;;;1.63;1.52;;;15.10;65.30;;;;;;5083715;28;20212;-70
2022/11/06 04:32:56;;;;;;;1.67;1.58;;;15.00;65.20;;;;;;5083801;28;20043;-71
2022/11/06 04:35:57;;;;;;;1.77;1.30;;;15.00;65.30;;;;;;5083819;28;20298;-69
2022/11/06 04:39:15;;;;;;;1.63;1.52;;;15.00;65.20;;;;;;5080892;28;20035;-70
2022/11/06 04:42:04;;;;;;;1.13;1.10;;;15.10;65.30;;;;;;5039245;28;20024;-70
2022/11/06 04:44:35;;;;;;;;;;;15.00;65.30;;;;;;5084181;28;20087;-70
2022/11/06 04:47:07;;;;;;;1.33;1.23;;;15.00;65.30;;;;;;5083674;28;20002;-70
2022/11/06 04:49:36;;;;;;;1.67;1.58;;;15.00;65.20;;;;;;5083671;28;20023;-69
2022/11/06 04:52:03;;;;;;;;;;;15.10;65.30;;;;;;5084076;28;20050;-70
2022/11/06 04:54:30;;;;;;;1.20;1.10;;;15.00;65.20;;;;;;5083586;28;20112;-70
2022/11/06 04:56:59;;;;;;;1.58;1.27;;;15.00;65.30;;;;;;5083473;28;20147;-70
2022/11/06 04:59:25;;;;;;;1.40;1.27;;;15.00;65.30;;;;;;5083483;28;20012;-69
2022/11/06 05:01:51;;;;;;;1.20;1.00;;;15.00;65.30;;;;;;5083512;28;20019;-70
2022/11/06 05:04:18;;;;;;;1.52;1.30;;;15.00;65.30;;;;;;5083468;28;20020;-70
2022/11/06 05:06:44;;;;;;;1.20;1.10;;;15.00;65.20;;;;;;5083466;28;20084;-70
2022/11/06 05:09:10;;;;;;;1.40;1.30;;;15.00;65.20;;;;;;5083452;28;20320;-70
2022/11/06 05:11:37;;;;;;;1.40;1.30;;;15.00;65.20;;;;;;5083384;28;20054;-70
2022/11/06 05:14:03;;;;;;;1.85;1.60;;;15.00;65.30;;;;;;5083371;28;20017;-70
2022/11/06 05:16:29;;;;;;;1.40;1.30;;;15.00;65.20;;;;;;5083282;28;20028;-70
2022/11/06 05:18:55;;;;;;;1.50;1.40;;;15.00;65.20;;;;;;5083360;28;20040;-70
2022/11/06 05:24:05;;;;;;;1.30;1.20;;;15.00;65.30;;;;;;5083344;28;20016;-69
2022/11/06 05:26:31;;;;;;;1.50;1.40;;;15.00;65.30;;;;;;5083199;28;20023;-70
2022/11/06 05:28:57;;;;;;;1.52;1.40;;;15.00;65.20;;;;;;5083275;28;20109;-70
2022/11/06 05:31:24;;;;;;;1.27;1.17;;;15.00;65.20;;;;;;5083054;28;20048;-70
2022/11/06 05:33:49;;;;;;;1.40;1.30;;;15.00;65.30;;;;;;5083173;28;20220;-69
2022/11/06 05:36:15;;;;;;;1.15;1.02;;;15.00;65.30;;;;;;5083099;28;20028;-70
2022/11/06 05:38:41;;;;;;;1.35;1.25;;;15.00;65.20;;;;;;5085714;28;20016;-70
2022/11/06 05:41:07;;;;;;;1.33;1.23;;;15.00;65.30;;;;;;5087005;28;20087;-70
2022/11/06 05:43:32;;;;;;;1.58;1.25;;;15.00;65.30;;;;;;5086962;28;20013;-69
2022/11/06 05:45:59;;;;;;;1.30;1.20;;;15.00;65.30;;;;;;5086974;28;20062;-70
2022/11/06 05:48:26;;;;;;;1.25;1.15;;;15.00;65.30;;;;;;5086923;28;20204;-70
2022/11/06 05:50:52;;;;;;;1.52;1.38;;;15.00;65.30;;;;;;5086868;28;20012;-70
2022/11/06 05:53:18;;;;;;;1.30;1.20;;;15.00;65.30;;;;;;5086790;28;20020;-71
2022/11/06 05:55:47;;;;;;;1.48;1.38;;;15.00;65.30;;;;;;5086760;28;20020;-69
2022/11/06 05:58:13;;;;;;;;;;;15.00;65.30;;;;;;5087060;28;20020;-69
2022/11/06 06:00:38;;;;;;;1.67;1.45;;;15.00;65.30;;;;;;5086690;28;19901;-70
2022/11/06 06:03:04;;;;;;;1.55;1.40;;;15.00;65.30;;;;;;5086655;28;20224;-70
2022/11/06 06:05:30;;;;;;;1.38;1.27;;;15.00;65.20;;;;;;5086580;28;20016;-69
2022/11/06 06:07:56;;;;;;;1.42;1.33;;;15.00;65.20;;;;;;5086555;28;20032;-70
2022/11/06 06:10:21;;;;;;;1.48;1.38;;;15.00;65.30;;;;;;5086483;28;20080;-70
2022/11/06 06:12:49;;;;;;;1.40;1.30;;;15.00;65.30;;;;;;5086438;28;20061;-70
2022/11/06 06:15:16;;;;;;;1.50;1.40;;;15.00;65.20;;;;;;5086418;28;20035;-70
2022/11/06 06:17:42;;;;;;;1.45;1.35;;;15.00;65.30;;;;;;5086276;28;20016;-70
2022/11/06 06:20:08;;;;;;;1.25;1.15;;;15.00;65.30;;;;;;5086299;28;20038;-70
2022/11/06 06:22:34;;;;;;;1.33;1.20;;;15.00;65.30;;;;;;5086316;28;20016;-70
2022/11/06 06:25:00;;;;;;;1.10;1.00;;;15.00;65.30;;;;;;5086221;28;20243;-69
2022/11/06 06:27:26;;;;;;;1.67;1.40;;;15.00;65.30;;;;;;5086179;28;20020;-70
2022/11/06 06:29:53;;;;;;;1.17;1.08;;;15.00;65.30;;;;;;5085986;28;20040;-70
2022/11/06 06:32:18;;;;;;;1.20;1.10;;;15.00;65.30;;;;;;5086131;28;20025;-70
2022/11/06 06:34:44;;;;;;;1.20;1.10;;;15.00;65.30;;;;;;5086048;28;20089;-70
2022/11/06 06:37:10;;;;;;;0.93;0.93;;;15.00;65.30;;;;;;5085946;28;20021;-70
2022/11/06 06:39:36;;;;;;;1.48;1.38;;;15.00;65.30;;;;;;5085986;28;20019;-70
2022/11/06 06:42:02;;;;;;;1.48;1.30;;;15.00;65.30;;;;;;5085932;28;20076;-70
2022/11/06 06:44:28;;;;;;;1.08;1.00;;;15.00;65.30;;;;;;5085914;28;20021;-70
2022/11/06 06:46:54;;;;;;;1.20;1.10;;;15.00;65.30;;;;;;5084642;28;20093;-70
2022/11/06 06:49:19;;;;;;;1.58;1.25;;;15.00;65.30;;;;;;5085506;28;20020;-70
2022/11/06 06:51:47;;;;;;;1.33;1.23;;;15.00;65.20;;;;;;5085735;28;20043;-69
2022/11/06 06:54:13;;;;;;;1.33;1.23;;;15.00;65.30;;;;;;5085767;28;20038;-70
2022/11/06 06:56:39;;;;;;;1.52;1.42;;;15.00;65.20;;;;;;5085553;28;20243;-70
2022/11/06 06:59:06;;;;;;;1.33;1.23;;;15.00;65.20;;;;;;5085588;28;20039;-70
2022/11/06 07:01:32;;;;;;;1.30;1.20;;;15.00;65.20;;;;;;5085554;28;20308;-70
2022/11/06 07:03:58;;;;;;;1.40;1.30;;;15.00;65.20;;;;;;5085492;28;20056;-69
2022/11/06 07:06:24;;;;;;;1.40;1.30;;;15.00;65.30;;;;;;5085430;28;20024;-70
2022/11/06 07:08:54;;;;;;;1.33;1.23;;;15.00;65.30;;;;;;5085457;28;20066;-69
2022/11/06 07:11:20;;;;;;;1.42;1.33;;;15.00;65.30;;;;;;5085674;28;20316;-70
2022/11/06 07:13:46;;;;;;;1.55;1.38;;;15.00;65.30;;;;;;5085296;28;20088;-69
2022/11/06 07:16:12;;;;;;;0.80;0.80;;;15.00;65.30;;;;;;5085174;28;20066;-70
2022/11/06 07:18:39;;;;;;;1.30;1.20;;;15.00;65.20;;;;;;5085261;28;20020;-70
2022/11/06 07:21:10;;;;;;;1.20;1.10;;;15.00;65.20;;;;;;5085147;28;20217;-70
2022/11/06 07:23:37;;;;;;;1.10;0.98;;;15.00;65.20;;;;;;5085125;28;20017;-70
2022/11/06 07:26:04;;;;;;;1.45;1.35;;;15.00;65.20;;;;;;5085110;28;20062;-70
2022/11/06 07:28:30;;;;;;;1.73;1.50;;;15.00;65.20;;;;;;5084645;28;20062;-70
2022/11/06 07:31:01;;;;;;;1.25;1.10;;;15.00;65.20;;;;;;5084841;28;20071;-70
2022/11/06 07:33:27;;;;;;;1.25;1.13;;;15.00;65.20;;;;;;5084941;28;20016;-70
2022/11/06 07:35:53;;;;;;;1.27;1.17;;;15.00;65.20;;;;;;5084869;28;20017;-70
2022/11/06 07:38:19;;;;;;;1.23;1.13;;;15.00;65.20;;;;;;5084682;28;20016;-70
2022/11/06 07:40:45;;;;;;;1.20;1.10;;;15.00;65.20;;;;;;5084765;28;20028;-70
2022/11/06 07:43:11;;;;;;;1.33;1.23;;;15.00;65.20;;;;;;5084718;28;20016;-70
2022/11/06 07:45:37;;;;;;;1.50;1.40;;;15.00;65.20;;;;;;5084638;28;20023;-70
2022/11/06 07:48:04;;;;;;;1.58;1.48;;;15.00;65.10;;;;;;5084670;28;20024;-70
2022/11/06 07:50:30;;;;;;;1.23;1.13;;;15.00;65.10;;;;;;5084580;28;20027;-70
2022/11/06 07:52:57;;;;;;;1.33;1.20;;;15.00;65.10;;;;;;5084552;28;20079;-70
2022/11/06 07:55:23;;;;;;;1.40;1.30;;;15.00;65.20;;;;;;5084539;28;20204;-70
2022/11/06 07:57:49;;;;;;;1.42;1.17;;;15.00;65.20;;;;;;5084365;28;20326;-70
2022/11/06 08:00:15;;;;;;;1.48;1.38;;;15.00;65.20;;;;;;5082614;28;20017;-70
2022/11/06 08:02:41;;;;;;;1.40;1.30;;;15.00;65.20;;;;;;5084285;28;20028;-70
2022/11/06 08:05:07;;;;;;;1.50;1.40;;;15.00;65.10;;;;;;5084334;28;20066;-70
2022/11/06 08:07:33;;;;;;;1.38;1.20;;;15.00;65.10;;;;;;5084287;28;20024;-70
2022/11/06 08:09:59;;;;;;;1.20;1.10;;;15.00;65.10;;;;;;5084190;28;20043;-70
2022/11/06 08:12:25;;;;;;;1.30;1.20;;;15.00;65.20;;;;;;5084149;28;20025;-71
2022/11/06 08:14:51;;;;;;;1.27;1.15;;;15.00;65.20;;;;;;5084081;28;20327;-70
2022/11/06 08:17:16;;;;;;;1.85;1.65;;;15.00;65.20;;;;;;5082805;28;20338;-70
2022/11/06 08:19:42;;;;;;;1.48;1.38;;;15.00;65.10;;;;;;5084055;28;20203;-70
2022/11/06 08:22:08;;;;;;;1.60;1.48;;;15.00;65.10;;;;;;5084008;28;20031;-71
2022/11/06 08:24:34;;;;;;;1.60;1.50;;;15.00;65.10;;;;;;5083983;28;20023;-71
2022/11/06 08:27:01;;;;;;;1.98;1.42;;;15.00;65.10;;;;;;5083963;28;20071;-71
2022/11/06 08:29:27;;;;;;;1.30;1.20;;;15.00;65.10;;;;;;5083798;28;20025;-71
2022/11/06 08:31:53;;;;;;;1.15;1.05;;;15.00;65.10;;;;;;5083906;28;20255;-69
2022/11/06 08:34:19;;;;;;;1.35;1.20;;;15.00;65.20;;;;;;5083851;28;20017;-70
2022/11/06 08:36:46;;;;;;;1.20;1.10;;;15.00;65.10;;;;;;5083738;28;20020;-70
2022/11/06 08:39:12;;;;;;;1.50;1.40;;;15.00;65.10;;;;;;5083767;28;20019;-70
2022/11/06 08:41:39;;;;;;;1.55;1.40;;;15.00;65.10;;;;;;5083714;28;20072;-70
2022/11/06 08:44:05;;;;;;;1.52;1.30;;;15.00;65.10;;;;;;5083723;28;20268;-70
2022/11/06 08:46:30;;;;;;;1.50;1.20;;;15.00;65.10;;;;;;5083699;28;20024;-70
2022/11/06 08:48:56;;;;;;;1.75;1.42;;;15.00;65.10;;;;;;5083641;28;20025;-70
2022/11/06 08:51:22;;;;;;;1.60;1.10;;;15.00;65.20;;;;;;5083594;28;20024;-70
2022/11/06 08:53:48;;;;;;;2.00;1.80;;;15.00;65.10;;;;;;5083577;28;20032;-70
2022/11/06 08:56:14;;;;;;;1.20;1.10;;;15.00;65.10;;;;;;5083483;28;20031;-70
2022/11/06 08:58:40;;;;;;;1.58;1.20;;;15.00;65.10;;;;;;5083528;28;20016;-70
2022/11/06 09:01:05;;;;;;;1.35;1.25;;;15.10;65.10;;;;;;5083523;28;20020;-70
2022/11/06 09:03:31;;;;;;;1.30;1.20;;;15.00;65.00;;;;;;5083482;28;20061;-70
2022/11/06 09:05:57;;;;;;;1.40;1.30;;;15.00;65.10;;;;;;5083478;28;20247;-70
2022/11/06 09:08:23;;;;;;;1.35;1.25;;;15.00;65.10;;;;;;5083438;28;20087;-71
2022/11/06 09:10:49;;;;;;;1.42;1.33;;;15.00;65.00;;;;;;5083417;28;20024;-70
2022/11/06 09:13:15;;;;;;;1.25;1.13;;;15.00;65.10;;;;;;5087142;28;20062;-70
2022/11/06 09:15:41;;;;;;;1.30;1.20;;;15.00;65.10;;;;;;5087578;28;20081;-70
2022/11/06 09:18:08;;;;;;;1.30;1.20;;;15.00;65.10;;;;;;5087461;28;20036;-70
2022/11/06 09:20:34;;;;;;;1.70;1.60;;;15.10;65.20;;;;;;5087493;28;20039;-70
2022/11/06 09:23:05;;;;;;;1.38;1.27;;;15.00;65.10;;;;;;5087462;28;20083;-70
2022/11/06 09:25:31;;;;;;;1.67;1.25;;;15.00;65.10;;;;;;5087419;28;20023;-69
2022/11/06 09:27:58;;;;;;;1.20;1.10;;;15.00;65.00;;;;;;5087340;28;20027;-70
2022/11/06 09:30:25;;;;;;;1.20;1.10;;;15.10;65.00;;;;;;5087065;28;20044;-70
2022/11/06 09:32:53;;;;;;;1.20;1.10;;;15.00;65.00;;;;;;5087246;28;20055;-70
2022/11/06 09:35:21;;;;;;;1.15;1.05;;;15.10;65.10;;;;;;5087249;28;20083;-70
2022/11/06 09:37:47;;;;;;;1.30;1.20;;;15.00;65.00;;;;;;5087094;28;20024;-71
2022/11/06 09:40:21;;;;;;;1.40;1.30;;;15.00;65.00;;;;;;5087114;28;20020;-71
2022/11/06 09:43:10;;;;;;;1.15;1.05;;;15.00;65.00;;;;;;5087015;28;20012;-71
2022/11/06 09:45:38;;;;;;;1.10;1.05;;;15.10;65.00;;;;;;5058516;28;20357;-71
2022/11/06 09:48:10;;;;;;;1.10;1.02;;;15.10;65.00;;;;;;5086998;28;20024;-71
2022/11/06 09:50:55;;;;;;;1.30;1.20;;;15.10;64.90;;;;;;5086940;28;20024;-71
2022/11/06 09:53:24;;;;;;;1.20;1.10;;;15.10;64.90;;;;;;5086953;28;20231;-71
2022/11/06 09:55:51;;;;;;;1.20;1.10;;;15.10;64.90;;;;;;5086839;28;20021;-71
2022/11/06 09:58:37;;;;;;;1.30;1.20;;;15.10;64.80;;;;;;5085510;28;20055;-70
2022/11/06 10:01:13;;;;;;;1.20;1.10;;;15.10;64.90;;;;;;5086774;28;20044;-70
2022/11/06 10:03:52;;;;;;;1.33;1.23;;;15.10;64.90;;;;;;5086638;28;20031;-70
2022/11/06 10:06:20;;;;;;;1.30;1.20;;;15.10;64.90;;;;;;5086644;28;20017;-70
2022/11/06 10:08:47;;;;;;;1.65;1.50;;;15.10;65.00;;;;;;5086543;28;20012;-70
2022/11/06 10:11:16;;;;;;;0.95;0.90;;;15.10;65.00;;;;;;5086503;28;20021;-70
2022/11/06 10:14:00;;;;;;;;;;;15.10;65.10;;;;;;5086904;28;20313;-70
2022/11/06 10:16:57;;;;;;;1.13;1.02;;;15.00;65.00;;;;;;5086317;28;19907;-70
2022/11/06 10:19:45;;;;;;;1.10;1.00;;;15.10;65.10;;;;;;5086400;28;20016;-70
2022/11/06 10:22:39;;;;;;;1.20;1.10;;;15.10;65.00;;;;;;5086397;28;20058;-70
2022/11/06 10:25:19;;;;;;;1.25;1.15;;;15.10;65.00;;;;;;5085126;28;20028;-70
2022/11/06 10:28:07;;;;;;;1.20;1.10;;;15.00;65.70;;;;;;5086208;28;20020;-70
2022/11/06 10:31:00;;;;;;;1.17;1.08;;;15.00;65.00;;;;;;5086012;28;20131;-70
2022/11/06 10:33:53;;;;;;;1.20;1.10;;;15.00;65.00;;;;;;5086143;28;20316;-70
2022/11/06 10:36:49;;;;;;;1.05;1.00;;;15.10;65.00;;;;;;5085988;28;20040;-70
2022/11/06 10:39:27;;;;;;;1.40;1.30;;;15.10;65.00;;;;;;5082847;28;20029;-70
2022/11/06 10:42:20;;;;;;;1.33;1.23;;;15.10;65.00;;;;;;5086030;28;20239;-70
2022/11/06 10:45:03;;;;;;;1.13;1.02;;;15.10;65.10;;;;;;5083615;28;20028;-71
2022/11/06 10:47:31;;;;;;;1.17;1.08;;;15.00;65.20;;;;;;5085848;28;20024;-71
2022/11/06 10:50:03;;;;;;;1.58;1.45;;;15.00;65.10;;;;;;5085867;28;20043;-71
2022/11/06 10:52:51;;;;;;;1.20;1.08;;;15.00;65.10;;;;;;5085717;28;20047;-71
2022/11/06 10:55:59;;;;;;;1.33;1.23;;;15.10;65.10;;;;;;5085785;28;20020;-71
2022/11/06 10:58:30;;;;;;;1.30;1.20;;;15.10;65.10;;;;;;5085636;28;20106;-71
